Terminal Aerodrome Forecast
Issued by NWS

Home | Current Version | Previous Version | Text Only | Print | Product List | Glossary On
Versions: 1 2 3 4 5 6 7 8 9 10 11 12 13 14 15 16 17 18 19 20
028
FTUS41 KBGM 220520
TAFITH
TAF
KITH 220520Z 2206/2306 15005KT P6SM OVC050
     FM220800 15004KT 6SM BR OVC015
      TEMPO 2210/2214 2SM BR OVC007
     FM221600 VRB03KT 5SM BR OVC007
      TEMPO 2300/2304 2SM BR=

USA.gov is the U.S. government's official web portal to all federal, state and local government web resources and services.